sensor_id;sensor_type;location;lat;lon;timestamp;pressure;altitude;pressure_sealevel;temperature;humidity
7050;BME280;22263;52.260;10.548;2023-09-18T17:54:07;99417.72;;;23.66;100.00
7050;BME280;22263;52.260;10.548;2023-09-18T17:56:39;99415.41;;;23.44;100.00
7050;BME280;22263;52.260;10.548;2023-09-18T17:59:13;99426.84;;;23.41;100.00
7050;BME280;22263;52.260;10.548;2023-09-18T18:01:44;99406.97;;;22.95;100.00
7050;BME280;22263;52.260;10.548;2023-09-18T18:04:16;99425.81;;;23.03;100.00
7050;BME280;22263;52.260;10.548;2023-09-18T18:06:48;99422.53;;;22.90;100.00
7050;BME280;22263;52.260;10.548;2023-09-18T18:09:21;99406.63;;;22.73;100.00
7050;BME280;22263;52.260;10.548;2023-09-18T18:11:52;99434.53;;;22.71;100.00
7050;BME280;22263;52.260;10.548;2023-09-18T18:14:22;99425.72;;;22.69;100.00
7050;BME280;22263;52.260;10.548;2023-09-18T18:16:52;99415.56;;;22.42;100.00
7050;BME280;22263;52.260;10.548;2023-09-18T18:19:24;99431.88;;;22.52;100.00
7050;BME280;22263;52.260;10.548;2023-09-18T18:21:54;99397.88;;;22.27;100.00
7050;BME280;22263;52.260;10.548;2023-09-18T18:24:27;99421.75;;;22.31;100.00
7050;BME280;22263;52.260;10.548;2023-09-18T18:26:58;99424.41;;;22.35;100.00
7050;BME280;22263;52.260;10.548;2023-09-18T18:29:30;99418.75;;;22.20;100.00
7050;BME280;22263;52.260;10.548;2023-09-18T18:32:04;99422.06;;;22.18;100.00
7050;BME280;22263;52.260;10.548;2023-09-18T18:34:35;99425.34;;;22.17;100.00
7050;BME280;22263;52.260;10.548;2023-09-18T18:37:05;99422.16;;;22.09;100.00
7050;BME280;22263;52.260;10.548;2023-09-18T18:39:39;99409.09;;;21.97;100.00
7050;BME280;22263;52.260;10.548;2023-09-18T18:42:10;99425.91;;;22.06;100.00
7050;BME280;22263;52.260;10.548;2023-09-18T18:44:40;99429.69;;;22.03;100.00
7050;BME280;22263;52.260;10.548;2023-09-18T18:47:11;99420.78;;;22.05;100.00
7050;BME280;22263;52.260;10.548;2023-09-18T18:49:41;99415.50;;;21.98;100.00
7050;BME280;22263;52.260;10.548;2023-09-18T18:52:12;99434.34;;;22.06;100.00
7050;BME280;22263;52.260;10.548;2023-09-18T18:54:44;99443.00;;;22.03;100.00
7050;BME280;22263;52.260;10.548;2023-09-18T18:57:16;99437.44;;;21.94;100.00
7050;BME280;22263;52.260;10.548;2023-09-18T18:59:47;99406.59;;;21.75;100.00
7050;BME280;22263;52.260;10.548;2023-09-18T19:02:18;99437.88;;;21.92;100.00
7050;BME280;22263;52.260;10.548;2023-09-18T19:04:49;99438.56;;;21.87;100.00
7050;BME280;22263;52.260;10.548;2023-09-18T19:07:19;99437.69;;;21.81;100.00
7050;BME280;22263;52.260;10.548;2023-09-18T19:09:51;99427.28;;;21.72;100.00
7050;BME280;22263;52.260;10.548;2023-09-18T19:12:25;99435.22;;;21.74;100.00
7050;BME280;22263;52.260;10.548;2023-09-18T19:14:56;99439.19;;;21.67;100.00
7050;BME280;22263;52.260;10.548;2023-09-18T19:17:27;99431.81;;;21.70;100.00
7050;BME280;22263;52.260;10.548;2023-09-18T19:19:57;99414.09;;;21.55;100.00
7050;BME280;22263;52.260;10.548;2023-09-18T19:22:27;99423.03;;;21.53;100.00
7050;BME280;22263;52.260;10.548;2023-09-18T19:25:05;99441.72;;;21.65;100.00
7050;BME280;22263;52.260;10.548;2023-09-18T19:39:46;99425.19;;;23.14;100.00
7050;BME280;22263;52.260;10.548;2023-09-18T19:42:16;99426.94;;;22.47;100.00
7050;BME280;22263;52.260;10.548;2023-09-18T19:46:04;99427.88;;;22.88;100.00
7050;BME280;22263;52.260;10.548;2023-09-18T19:48:38;99415.16;;;22.34;100.00
7050;BME280;22263;52.260;10.548;2023-09-18T19:51:08;99427.75;;;21.71;100.00
7050;BME280;22263;52.260;10.548;2023-09-18T19:53:40;99421.59;;;21.58;100.00
7050;BME280;22263;52.260;10.548;2023-09-18T19:56:09;99417.34;;;21.39;100.00
7050;BME280;22263;52.260;10.548;2023-09-18T19:58:39;99412.19;;;21.37;100.00
7050;BME280;22263;52.260;10.548;2023-09-18T20:01:12;99415.91;;;21.43;100.00
7050;BME280;22263;52.260;10.548;2023-09-18T20:03:42;99415.66;;;21.32;100.00
7050;BME280;22263;52.260;10.548;2023-09-18T20:06:12;99406.69;;;21.19;100.00
7050;BME280;22263;52.260;10.548;2023-09-18T20:08:41;99408.53;;;21.22;100.00
7050;BME280;22263;52.260;10.548;2023-09-18T20:11:11;99400.59;;;21.11;100.00
7050;BME280;22263;52.260;10.548;2023-09-18T20:13:44;99407.34;;;21.14;100.00
7050;BME280;22263;52.260;10.548;2023-09-18T20:16:17;99401.22;;;21.15;100.00
7050;BME280;22263;52.260;10.548;2023-09-18T20:18:47;99389.69;;;21.13;100.00
7050;BME280;22263;52.260;10.548;2023-09-18T20:21:19;99396.13;;;21.05;100.00
7050;BME280;22263;52.260;10.548;2023-09-18T20:23:49;99392.34;;;21.08;100.00
7050;BME280;22263;52.260;10.548;2023-09-18T20:26:20;99390.31;;;21.08;100.00
7050;BME280;22263;52.260;10.548;2023-09-18T20:28:49;99395.16;;;21.08;100.00
7050;BME280;22263;52.260;10.548;2023-09-18T20:31:21;99390.59;;;21.10;100.00
7050;BME280;22263;52.260;10.548;2023-09-18T20:33:51;99391.56;;;21.07;100.00
7050;BME280;22263;52.260;10.548;2023-09-18T20:36:21;99396.22;;;21.19;100.00
7050;BME280;22263;52.260;10.548;2023-09-18T20:38:51;99390.75;;;21.16;100.00
7050;BME280;22263;52.260;10.548;2023-09-18T20:41:20;99395.13;;;21.17;100.00
7050;BME280;22263;52.260;10.548;2023-09-18T20:43:50;99395.91;;;21.17;100.00
7050;BME280;22263;52.260;10.548;2023-09-18T20:46:22;99400.56;;;21.20;100.00
7050;BME280;22263;52.260;10.548;2023-09-18T20:48:53;99401.84;;;21.19;100.00
7050;BME280;22263;52.260;10.548;2023-09-18T20:51:25;99401.22;;;21.15;100.00
7050;BME280;22263;52.260;10.548;2023-09-18T20:53:58;99402.09;;;20.98;100.00
7050;BME280;22263;52.260;10.548;2023-09-18T20:56:29;99399.50;;;21.18;100.00
7050;BME280;22263;52.260;10.548;2023-09-18T20:59:03;99398.13;;;21.13;100.00
7050;BME280;22263;52.260;10.548;2023-09-18T21:01:35;99397.28;;;21.22;100.00
7050;BME280;22263;52.260;10.548;2023-09-18T21:04:07;99395.84;;;21.26;100.00
7050;BME280;22263;52.260;10.548;2023-09-18T21:06:38;99387.28;;;21.21;100.00
7050;BME280;22263;52.260;10.548;2023-09-18T21:09:09;99389.56;;;21.31;100.00
7050;BME280;22263;52.260;10.548;2023-09-18T21:11:40;99397.03;;;21.35;100.00
7050;BME280;22263;52.260;10.548;2023-09-18T21:14:11;99393.41;;;21.43;100.00
7050;BME280;22263;52.260;10.548;2023-09-18T21:16:43;99390.22;;;21.26;100.00
7050;BME280;22263;52.260;10.548;2023-09-18T21:19:13;99387.28;;;21.45;100.00
7050;BME280;22263;52.260;10.548;2023-09-18T21:21:42;99388.72;;;21.40;100.00
7050;BME280;22263;52.260;10.548;2023-09-18T21:24:12;99389.16;;;21.48;100.00
7050;BME280;22263;52.260;10.548;2023-09-18T21:26:42;99385.69;;;21.53;100.00
7050;BME280;22263;52.260;10.548;2023-09-18T21:29:12;99393.34;;;21.52;100.00
7050;BME280;22263;52.260;10.548;2023-09-18T21:31:44;99393.88;;;21.65;100.00
7050;BME280;22263;52.260;10.548;2023-09-18T21:34:14;99400.63;;;21.59;100.00
7050;BME280;22263;52.260;10.548;2023-09-18T21:36:44;99395.78;;;21.59;100.00
7050;BME280;22263;52.260;10.548;2023-09-18T21:39:13;99398.72;;;21.65;100.00
7050;BME280;22263;52.260;10.548;2023-09-18T21:41:43;99397.94;;;21.64;100.00
7050;BME280;22263;52.260;10.548;2023-09-18T21:44:13;99406.38;;;21.41;100.00
7050;BME280;22263;52.260;10.548;2023-09-18T21:46:45;99408.34;;;21.49;100.00
7050;BME280;22263;52.260;10.548;2023-09-18T21:49:15;99413.16;;;21.34;100.00
7050;BME280;22263;52.260;10.548;2023-09-18T21:51:45;99421.53;;;21.43;100.00
7050;BME280;22263;52.260;10.548;2023-09-18T21:54:15;99410.34;;;21.58;100.00
7050;BME280;22263;52.260;10.548;2023-09-18T21:56:44;99414.41;;;21.57;100.00
7050;BME280;22263;52.260;10.548;2023-09-18T21:59:14;99411.88;;;21.59;100.00
7050;BME280;22263;52.260;10.548;2023-09-18T22:01:46;99417.81;;;21.61;100.00
7050;BME280;22263;52.260;10.548;2023-09-18T22:04:21;99457.28;;;21.52;100.00
7050;BME280;22263;52.260;10.548;2023-09-18T22:06:51;99494.47;;;21.23;100.00
7050;BME280;22263;52.260;10.548;2023-09-18T22:09:22;99515.94;;;20.93;100.00
7050;BME280;22263;52.260;10.548;2023-09-18T22:11:53;99489.63;;;20.72;100.00
7050;BME280;22263;52.260;10.548;2023-09-18T22:14:24;99501.97;;;20.66;100.00
7050;BME280;22263;52.260;10.548;2023-09-18T22:16:57;99499.34;;;20.44;100.00
7050;BME280;22263;52.260;10.548;2023-09-18T22:19:26;99514.78;;;20.12;100.00
7050;BME280;22263;52.260;10.548;2023-09-18T22:21:56;99522.03;;;19.55;100.00
7050;BME280;22263;52.260;10.548;2023-09-18T22:24:26;99526.66;;;19.09;100.00
7050;BME280;22263;52.260;10.548;2023-09-18T22:26:56;99532.31;;;19.18;100.00
7050;BME280;22263;52.260;10.548;2023-09-18T22:29:27;99529.66;;;18.84;100.00
7050;BME280;22263;52.260;10.548;2023-09-18T22:31:59;99526.97;;;18.80;100.00
7050;BME280;22263;52.260;10.548;2023-09-18T22:34:31;99536.09;;;18.71;100.00
7050;BME280;22263;52.260;10.548;2023-09-18T22:37:00;99558.88;;;18.39;100.00
7050;BME280;22263;52.260;10.548;2023-09-18T22:56:26;99572.22;;;18.01;100.00
7050;BME280;22263;52.260;10.548;2023-09-18T22:58:56;99562.72;;;17.98;100.00
7050;BME280;22263;52.260;10.548;2023-09-18T23:01:26;99567.44;;;17.89;100.00
7050;BME280;22263;52.260;10.548;2023-09-18T23:03:57;99569.44;;;17.88;100.00
7050;BME280;22263;52.260;10.548;2023-09-18T23:06:27;99569.09;;;17.86;100.00
7050;BME280;22263;52.260;10.548;2023-09-18T23:09:00;99566.44;;;17.82;100.00
7050;BME280;22263;52.260;10.548;2023-09-18T23:11:45;99558.13;;;17.92;100.00
7050;BME280;22263;52.260;10.548;2023-09-18T23:14:15;99551.63;;;17.95;100.00
7050;BME280;22263;52.260;10.548;2023-09-18T23:16:47;99549.22;;;17.84;100.00
7050;BME280;22263;52.260;10.548;2023-09-18T23:19:18;99530.59;;;18.03;100.00
7050;BME280;22263;52.260;10.548;2023-09-18T23:21:48;99528.09;;;18.05;100.00
7050;BME280;22263;52.260;10.548;2023-09-18T23:24:18;99518.41;;;17.97;100.00
7050;BME280;22263;52.260;10.548;2023-09-18T23:26:52;99512.47;;;17.95;100.00
7050;BME280;22263;52.260;10.548;2023-09-18T23:29:22;99523.34;;;17.93;100.00
7050;BME280;22263;52.260;10.548;2023-09-18T23:31:53;99513.38;;;17.92;100.00
7050;BME280;22263;52.260;10.548;2023-09-18T23:34:24;99517.56;;;17.74;100.00
7050;BME280;22263;52.260;10.548;2023-09-18T23:36:54;99517.41;;;17.91;100.00
7050;BME280;22263;52.260;10.548;2023-09-18T23:39:24;99531.72;;;17.93;100.00
7050;BME280;22263;52.260;10.548;2023-09-18T23:41:58;99527.59;;;18.19;100.00
7050;BME280;22263;52.260;10.548;2023-09-18T23:44:29;99525.06;;;18.12;100.00
7050;BME280;22263;52.260;10.548;2023-09-18T23:47:00;99534.91;;;18.16;100.00
7050;BME280;22263;52.260;10.548;2023-09-18T23:49:29;99535.50;;;17.99;100.00
7050;BME280;22263;52.260;10.548;2023-09-18T23:52:00;99540.94;;;18.15;100.00
7050;BME280;22263;52.260;10.548;2023-09-18T23:54:30;99544.56;;;18.03;100.00
7050;BME280;22263;52.260;10.548;2023-09-18T23:57:03;99550.03;;;18.06;100.00
7050;BME280;22263;52.260;10.548;2023-09-18T23:59:34;99550.53;;;17.92;100.00
